createdAt,value
2023-04-16T00:00:36.797Z,4.35
2023-04-16T00:05:38.862Z,4.22
2023-04-16T00:10:41.041Z,4.38
2023-04-16T00:15:42.812Z,4.22
2023-04-16T00:20:44.581Z,3.72
2023-04-16T00:25:46.564Z,3.22
2023-04-16T00:30:48.515Z,3.28
2023-04-16T00:35:51.345Z,3.38
2023-04-16T00:40:53.296Z,3.05
2023-04-16T00:45:57.771Z,2.63
2023-04-16T00:51:01.685Z,2.47
2023-04-16T00:56:05.185Z,3.03
2023-04-16T01:01:06.997Z,3.08
2023-04-16T01:06:09.540Z,2.53
2023-04-16T01:11:12.418Z,2.00
2023-04-16T01:16:14.769Z,1.80
2023-04-16T01:21:16.666Z,1.10
2023-04-16T01:26:18.742Z,1.65
2023-04-16T01:31:20.512Z,1.17
2023-04-16T01:36:22.302Z,1.30
2023-04-16T01:41:24.304Z,1.15
2023-04-16T01:46:32.452Z,1.42
2023-04-16T01:51:34.513Z,1.40
2023-04-16T01:56:36.663Z,1.20
2023-04-16T02:01:38.825Z,1.30
2023-04-16T02:06:40.970Z,1.10
2023-04-16T02:11:42.938Z,1.40
2023-04-16T02:16:44.731Z,1.75
2023-04-16T02:21:46.684Z,1.67
2023-04-16T02:26:48.561Z,2.03
2023-04-16T02:31:50.569Z,2.03
2023-04-16T02:36:52.548Z,2.33
2023-04-16T02:41:54.678Z,2.10
2023-04-16T02:46:56.509Z,2.58
2023-04-16T02:51:58.372Z,2.40
2023-04-16T02:57:00.139Z,2.80
2023-04-16T03:02:01.895Z,2.40
2023-04-16T03:07:03.793Z,2.60
2023-04-16T03:12:05.970Z,2.60
2023-04-16T03:17:07.815Z,3.28
2023-04-16T03:22:09.655Z,2.50
2023-04-16T03:27:11.405Z,2.60
2023-04-16T03:32:13.232Z,2.35
2023-04-16T03:37:14.975Z,2.45
2023-04-16T03:42:16.919Z,2.60
2023-04-16T03:47:18.706Z,2.25
2023-04-16T03:52:20.528Z,2.92
2023-04-16T03:57:22.419Z,2.58
2023-04-16T04:02:24.421Z,2.83
2023-04-16T04:07:26.634Z,2.53
2023-04-16T04:12:28.446Z,2.45
2023-04-16T04:17:30.217Z,2.33
2023-04-16T04:22:32.316Z,2.05
2023-04-16T04:27:34.141Z,1.70
2023-04-16T04:32:36.025Z,2.00
2023-04-16T04:37:37.900Z,2.20
2023-04-16T04:42:39.739Z,2.30
2023-04-16T04:47:41.600Z,2.03
2023-04-16T04:52:43.444Z,1.95
2023-04-16T04:57:45.401Z,1.58
2023-04-16T05:02:47.633Z,1.92
2023-04-16T05:07:49.596Z,2.40
2023-04-16T05:12:51.671Z,3.75
2023-04-16T05:17:53.481Z,15.00
2023-04-16T05:22:55.472Z,9.05
2023-04-16T05:27:57.374Z,4.03
2023-04-16T05:32:59.169Z,14.38
2023-04-16T05:38:01.112Z,4.68
2023-04-16T05:43:02.906Z,4.47
2023-04-16T05:48:04.686Z,4.68
2023-04-16T05:53:08.490Z,6.90
2023-04-16T05:58:10.311Z,7.07
2023-04-16T06:03:12.183Z,6.95
2023-04-16T06:08:14.134Z,5.88
2023-04-16T06:13:16.243Z,6.93
2023-04-16T06:18:18.013Z,7.22
2023-04-16T06:23:19.803Z,11.13
2023-04-16T06:28:21.806Z,6.55
2023-04-16T06:33:23.879Z,6.47
2023-04-16T06:38:25.669Z,8.85
2023-04-16T06:43:27.668Z,8.70
2023-04-16T06:48:30.111Z,10.02
2023-04-16T06:53:32.095Z,10.70
2023-04-16T06:58:34.046Z,9.63
2023-04-16T07:03:36.589Z,9.30
2023-04-16T07:08:38.443Z,10.98
2023-04-16T07:13:40.383Z,10.45
2023-04-16T07:18:42.167Z,10.43
2023-04-16T07:23:44.026Z,9.80
2023-04-16T07:28:45.871Z,9.95
2023-04-16T07:33:47.869Z,9.52
2023-04-16T07:38:49.596Z,10.27
2023-04-16T07:43:51.482Z,10.32
2023-04-16T07:48:53.379Z,8.98
2023-04-16T07:53:55.359Z,9.88
2023-04-16T07:59:01.049Z,10.82
2023-04-16T08:04:07.492Z,10.32
2023-04-16T08:09:09.550Z,8.27
2023-04-16T08:14:11.581Z,8.27
2023-04-16T08:19:13.477Z,9.90
2023-04-16T08:24:15.318Z,9.48
2023-04-16T08:29:17.540Z,7.78
2023-04-16T08:34:19.488Z,8.02
2023-04-16T08:39:21.780Z,7.63
2023-04-16T08:44:31.058Z,7.47
2023-04-16T08:49:36.940Z,5.45
2023-04-16T08:54:57.259Z,5.65
2023-04-16T09:00:01.121Z,4.57
2023-04-16T09:05:06.582Z,5.00
2023-04-16T09:10:09.488Z,4.82
2023-04-16T09:15:12.687Z,4.63
2023-04-16T09:20:15.749Z,4.10
2023-04-16T09:25:17.957Z,4.30
2023-04-16T09:30:21.931Z,4.07
2023-04-16T09:35:23.839Z,3.33
2023-04-16T09:40:30.257Z,4.47
2023-04-16T09:45:33.023Z,4.15
2023-04-16T09:50:34.811Z,3.85
2023-04-16T09:55:36.623Z,14.52
2023-04-16T10:00:43.371Z,4.00
2023-04-16T10:05:45.541Z,4.93
2023-04-16T10:10:47.293Z,4.78
2023-04-16T10:15:50.329Z,4.70
2023-04-16T10:20:52.398Z,5.95
2023-04-16T10:25:57.392Z,4.10
2023-04-16T10:31:01.037Z,4.57
2023-04-16T10:36:13.082Z,3.97
2023-04-16T10:41:15.428Z,3.60
2023-04-16T10:46:34.296Z,7.32
2023-04-16T10:51:36.795Z,3.30
2023-04-16T10:56:38.637Z,3.63
2023-04-16T11:01:44.637Z,9.00
2023-04-16T11:07:05.549Z,3.47
2023-04-16T11:12:09.599Z,2.78
2023-04-16T11:17:11.488Z,10.73
2023-04-16T11:22:15.352Z,3.25
2023-04-16T11:27:17.450Z,3.13
2023-04-16T11:32:22.828Z,3.88
2023-04-16T11:37:35.270Z,3.45
2023-04-16T11:42:38.145Z,5.03
2023-04-16T11:47:55.315Z,2.50
2023-04-16T11:53:03.942Z,3.10
2023-04-16T11:58:13.500Z,3.22
2023-04-16T12:03:16.536Z,14.80
2023-04-16T12:08:30.984Z,4.53
2023-04-16T12:13:39.841Z,9.63
2023-04-16T12:18:59.986Z,3.10
2023-04-16T12:24:01.810Z,4.03
2023-04-16T12:29:24.469Z,3.30
2023-04-16T12:34:36.588Z,3.33
2023-04-16T12:39:48.188Z,10.43
2023-04-16T12:44:50.060Z,3.95
2023-04-16T12:49:51.975Z,4.97
2023-04-16T12:54:53.823Z,3.58
2023-04-16T12:59:57.101Z,4.47
2023-04-16T13:04:58.869Z,4.07
2023-04-16T13:10:01.095Z,11.77
2023-04-16T13:15:03.024Z,5.75
2023-04-16T13:20:05.300Z,7.25
2023-04-16T13:25:07.862Z,6.70
2023-04-16T13:30:10.126Z,4.97
2023-04-16T13:35:12.320Z,3.97
2023-04-16T13:40:14.122Z,4.28
2023-04-16T13:45:16.030Z,5.43
2023-04-16T13:50:18.019Z,5.20
2023-04-16T13:55:19.815Z,13.65
2023-04-16T14:00:21.820Z,4.60
2023-04-16T14:05:25.779Z,4.80
2023-04-16T14:10:29.128Z,4.90
2023-04-16T14:15:31.699Z,4.32
2023-04-16T14:20:33.823Z,5.90
2023-04-16T14:25:35.846Z,5.85
2023-04-16T14:30:37.691Z,6.50
2023-04-16T14:35:39.724Z,8.50
2023-04-16T14:40:41.656Z,7.85
2023-04-16T14:45:43.593Z,8.25
2023-04-16T14:50:45.532Z,5.07
2023-04-16T14:55:47.639Z,6.07
2023-04-16T15:00:49.677Z,6.40
2023-04-16T15:05:55.841Z,5.47
2023-04-16T15:10:57.707Z,6.05
2023-04-16T15:16:04.850Z,6.78
2023-04-16T15:21:06.638Z,8.20
2023-04-16T15:26:08.512Z,8.23
2023-04-16T15:31:10.380Z,8.90
2023-04-16T15:36:12.227Z,9.48
2023-04-16T15:41:14.346Z,9.73
2023-04-16T15:46:16.410Z,7.18
2023-04-16T15:51:18.285Z,7.80
2023-04-16T15:56:20.532Z,6.60
2023-04-16T16:01:22.441Z,7.18
2023-04-16T16:06:24.344Z,7.07
2023-04-16T16:11:27.340Z,6.88
2023-04-16T16:16:29.605Z,7.53
2023-04-16T16:21:32.567Z,7.03
2023-04-16T16:26:34.704Z,8.57
2023-04-16T16:31:36.566Z,9.27
2023-04-16T16:36:38.356Z,8.15
2023-04-16T16:41:43.248Z,8.55
2023-04-16T16:46:45.178Z,10.05
2023-04-16T16:51:48.333Z,13.05
2023-04-16T16:56:50.121Z,16.67
2023-04-16T17:01:51.919Z,8.82
2023-04-16T17:06:53.710Z,11.48
2023-04-16T17:11:57.317Z,11.82
2023-04-16T17:16:59.533Z,11.95
2023-04-16T17:22:02.696Z,18.80
2023-04-16T17:27:04.568Z,10.40
2023-04-16T17:32:06.503Z,9.38
2023-04-16T17:37:08.345Z,7.72
2023-04-16T17:42:10.296Z,13.77
2023-04-16T17:47:12.133Z,10.30
2023-04-16T17:52:14.011Z,10.32
2023-04-16T17:57:15.775Z,24.50
2023-04-16T18:02:17.847Z,25.70
2023-04-16T18:07:19.825Z,15.07
2023-04-16T18:12:21.594Z,11.38
2023-04-16T18:17:23.836Z,9.48
2023-04-16T18:22:27.491Z,20.77
2023-04-16T18:27:30.028Z,19.73
2023-04-16T18:32:31.922Z,15.68
2023-04-16T18:37:33.815Z,9.20
2023-04-16T18:42:35.843Z,6.07
2023-04-16T18:47:39.231Z,6.40
2023-04-16T18:52:41.292Z,7.65
2023-04-16T18:57:43.078Z,7.25
2023-04-16T19:02:44.939Z,6.93
2023-04-16T19:07:46.926Z,6.80
2023-04-16T19:12:48.889Z,7.65
2023-04-16T19:17:50.755Z,7.53
2023-04-16T19:22:52.654Z,9.48
2023-04-16T19:27:56.090Z,10.48
2023-04-16T19:32:58.096Z,7.88
2023-04-16T19:37:59.983Z,10.00
2023-04-16T19:43:01.816Z,9.73
2023-04-16T19:48:03.807Z,11.38
2023-04-16T19:53:05.879Z,7.43
2023-04-16T19:58:08.416Z,6.80
2023-04-16T20:03:11.144Z,7.10
2023-04-16T20:08:13.082Z,7.72
2023-04-16T20:13:16.683Z,7.25
2023-04-16T20:18:20.318Z,7.05
2023-04-16T20:23:22.336Z,8.60
2023-04-16T20:28:24.295Z,8.77
2023-04-16T20:33:26.050Z,8.35
2023-04-16T20:38:32.256Z,7.05
2023-04-16T20:43:43.928Z,8.02
2023-04-16T20:48:45.695Z,7.25
2023-04-16T20:53:47.519Z,7.38
2023-04-16T20:58:49.274Z,8.13
2023-04-16T21:03:51.358Z,7.40
2023-04-16T21:08:53.370Z,8.73
2023-04-16T21:13:55.142Z,8.82
2023-04-16T21:18:57.321Z,8.98
2023-04-16T21:23:59.163Z,7.90
2023-04-16T21:29:00.949Z,7.82
2023-04-16T21:34:02.799Z,7.40
2023-04-16T21:39:04.623Z,9.73
2023-04-16T21:44:06.508Z,8.30
2023-04-16T21:49:11.586Z,8.00
2023-04-16T21:54:13.661Z,8.90
2023-04-16T21:59:15.419Z,8.95
2023-04-16T22:04:17.811Z,8.43
2023-04-16T22:09:19.897Z,8.27
2023-04-16T22:14:21.705Z,8.88
2023-04-16T22:19:23.579Z,8.23
2023-04-16T22:24:25.427Z,7.65
2023-04-16T22:29:27.235Z,8.73
2023-04-16T22:34:29.056Z,8.90
2023-04-16T22:39:31.647Z,8.57
2023-04-16T22:44:33.430Z,8.80
2023-04-16T22:49:35.198Z,10.52
2023-04-16T22:54:37.090Z,10.23
2023-04-16T22:59:38.986Z,10.23
2023-04-16T23:04:40.814Z,10.57
2023-04-16T23:09:42.792Z,10.27
2023-04-16T23:14:46.002Z,11.93
2023-04-16T23:19:47.878Z,11.00
2023-04-16T23:24:49.657Z,10.52
2023-04-16T23:29:51.465Z,10.57
2023-04-16T23:34:53.319Z,10.90
2023-04-16T23:39:55.437Z,11.40
2023-04-16T23:44:57.292Z,11.70
2023-04-16T23:49:59.155Z,10.57
2023-04-16T23:55:01.015Z,11.13
